createdAt,value
2023-07-08T06:52:48.169Z,2.30
2023-07-08T06:55:15.198Z,2.28
2023-07-08T06:57:42.378Z,2.35
2023-07-08T07:00:11.124Z,2.20
2023-07-08T07:02:38.032Z,2.17
2023-07-08T07:05:05.491Z,2.45
2023-07-08T07:07:32.196Z,2.13
2023-07-08T07:09:59.010Z,1.80
2023-07-08T07:12:26.328Z,2.00
2023-07-08T07:14:54.214Z,2.05
2023-07-08T07:17:22.625Z,2.35
2023-07-08T07:19:49.333Z,2.28
2023-07-08T07:22:16.443Z,1.90
2023-07-08T07:24:43.260Z,2.03
2023-07-08T07:27:10.446Z,2.00
2023-07-08T07:29:42.649Z,2.05
2023-07-08T07:32:10.478Z,1.90
2023-07-08T07:34:37.310Z,2.88
2023-07-08T07:37:04.057Z,2.05
2023-07-08T07:39:30.701Z,2.60
2023-07-08T07:41:57.326Z,2.28
2023-07-08T07:44:24.127Z,2.08
2023-07-08T07:46:50.789Z,2.30
2023-07-08T07:49:17.490Z,1.55
2023-07-08T07:51:44.106Z,1.83
2023-07-08T07:54:11.150Z,2.28
2023-07-08T07:56:37.783Z,1.95
2023-07-08T07:59:04.975Z,1.70
2023-07-08T08:01:31.598Z,1.90
2023-07-08T08:03:58.310Z,2.25
2023-07-08T08:06:24.974Z,2.00
2023-07-08T08:08:51.947Z,2.50
2023-07-08T08:11:18.617Z,1.50
2023-07-08T08:13:45.259Z,2.85
2023-07-08T08:16:11.906Z,1.95
2023-07-08T08:18:38.487Z,1.92
2023-07-08T08:21:05.147Z,1.80
2023-07-08T08:23:31.923Z,2.10
2023-07-08T08:25:58.703Z,2.35
2023-07-08T08:28:25.554Z,2.20
2023-07-08T08:30:52.306Z,1.85
2023-07-08T08:33:19.632Z,2.35
2023-07-08T08:35:46.565Z,1.90
2023-07-08T08:38:13.342Z,1.88
2023-07-08T08:40:43.722Z,2.13
2023-07-08T08:43:23.205Z,1.70
2023-07-08T08:46:05.133Z,1.70
2023-07-08T08:48:34.282Z,1.80
2023-07-08T08:51:08.046Z,3.78
2023-07-08T08:53:34.788Z,2.33
2023-07-08T08:56:10.404Z,2.63
2023-07-08T08:58:38.837Z,2.03
2023-07-08T09:01:10.125Z,1.90
2023-07-08T09:04:10.092Z,2.10
2023-07-08T09:06:36.834Z,1.88
2023-07-08T09:09:07.453Z,2.75
2023-07-08T09:11:46.899Z,1.98
2023-07-08T09:14:28.123Z,2.15
2023-07-08T09:16:54.795Z,1.60
2023-07-08T09:19:36.966Z,1.70
2023-07-08T09:22:18.004Z,2.00
2023-07-08T09:24:53.853Z,1.92
2023-07-08T09:27:20.582Z,1.70
2023-07-08T09:29:47.724Z,2.15
2023-07-08T09:32:22.889Z,2.00
2023-07-08T09:34:56.730Z,1.83
2023-07-08T09:37:29.791Z,2.40
2023-07-08T09:39:58.472Z,3.42
2023-07-08T09:42:29.848Z,1.70
2023-07-08T09:45:04.041Z,1.50
2023-07-08T09:47:35.741Z,1.80
2023-07-08T09:50:05.532Z,1.88
2023-07-08T09:52:32.845Z,1.67
2023-07-08T09:54:59.461Z,1.70
2023-07-08T09:57:32.501Z,1.70
2023-07-08T10:00:07.874Z,1.70
2023-07-08T10:02:47.512Z,2.17
2023-07-08T10:05:24.372Z,1.40
2023-07-08T10:07:55.373Z,2.10
2023-07-08T10:10:34.653Z,2.03
2023-07-08T10:13:24.199Z,2.67
2023-07-08T10:15:55.541Z,2.40
2023-07-08T10:18:27.465Z,2.33
2023-07-08T10:21:01.419Z,1.63
2023-07-08T10:23:34.437Z,1.95
2023-07-08T10:26:16.407Z,1.80
2023-07-08T10:29:21.547Z,1.80
2023-07-08T10:31:54.677Z,2.28
2023-07-08T10:34:35.284Z,2.13
2023-07-08T10:37:23.990Z,2.47
2023-07-08T10:40:19.368Z,2.00
2023-07-08T10:42:48.923Z,1.80
2023-07-08T10:45:33.067Z,1.80
2023-07-08T10:48:26.124Z,1.40
2023-07-08T10:51:20.635Z,2.03
2023-07-08T10:54:08.439Z,1.98
2023-07-08T10:56:52.696Z,1.90
2023-07-08T10:59:19.297Z,1.75
2023-07-08T11:02:29.920Z,2.27
2023-07-08T11:05:21.090Z,2.80
2023-07-08T11:07:53.706Z,2.47
2023-07-08T11:10:24.653Z,2.90
2023-07-08T11:13:02.094Z,2.42
2023-07-08T11:15:37.364Z,2.53
2023-07-08T11:18:15.059Z,2.58
2023-07-08T11:21:05.395Z,2.45
2023-07-08T11:23:44.933Z,2.55
2023-07-08T11:26:32.827Z,2.30
2023-07-08T11:29:00.978Z,3.65
2023-07-08T11:31:33.002Z,2.00
2023-07-08T11:34:00.518Z,2.65
2023-07-08T11:36:27.911Z,2.30
2023-07-08T11:38:56.592Z,2.00
2023-07-08T11:41:26.332Z,2.28
2023-07-08T11:44:06.243Z,2.30
2023-07-08T11:46:34.139Z,2.05
2023-07-08T11:49:07.393Z,2.20
2023-07-08T11:51:37.388Z,2.60
2023-07-08T11:54:14.280Z,2.40
2023-07-08T11:56:59.379Z,2.53
2023-07-08T11:59:28.065Z,2.78
2023-07-08T12:02:02.985Z,2.63
2023-07-08T12:04:36.455Z,2.30
2023-07-08T12:07:12.606Z,2.78
2023-07-08T12:09:46.859Z,2.50
2023-07-08T12:12:22.772Z,2.00
2023-07-08T12:14:49.555Z,2.28
2023-07-08T12:17:16.526Z,2.63
2023-07-08T12:19:45.019Z,2.63
2023-07-08T12:22:13.136Z,2.53
2023-07-08T12:24:41.636Z,2.60
2023-07-08T12:27:10.821Z,2.50
2023-07-08T12:29:37.868Z,2.75
2023-07-08T12:32:05.073Z,2.30
2023-07-08T12:34:32.570Z,2.63
2023-07-08T12:36:59.200Z,2.80
2023-07-08T12:39:25.818Z,2.80
2023-07-08T12:41:52.529Z,2.90
2023-07-08T12:44:22.856Z,2.88
2023-07-08T12:46:50.984Z,2.65
2023-07-08T12:49:19.403Z,2.58
2023-07-08T12:51:46.117Z,2.70
2023-07-08T12:54:13.596Z,3.10
2023-07-08T12:56:42.099Z,2.92
2023-07-08T12:59:09.072Z,2.97
2023-07-08T13:01:36.545Z,3.20
2023-07-08T13:04:10.535Z,2.50
2023-07-08T13:06:38.102Z,2.90
2023-07-08T13:09:41.412Z,2.90
2023-07-08T13:12:27.274Z,3.00
2023-07-08T13:14:55.710Z,2.75
2023-07-08T13:17:22.529Z,2.97
2023-07-08T13:19:49.702Z,3.05
2023-07-08T13:22:26.229Z,2.85
2023-07-08T13:25:02.084Z,3.10
2023-07-08T13:27:29.296Z,2.75
2023-07-08T13:29:58.265Z,2.55
2023-07-08T13:32:32.763Z,2.88
2023-07-08T13:34:59.559Z,2.63
2023-07-08T13:37:26.971Z,2.60
2023-07-08T13:39:54.848Z,2.67
2023-07-08T13:42:21.572Z,2.58
2023-07-08T13:44:49.012Z,2.92
2023-07-08T13:47:26.933Z,2.72
2023-07-08T13:50:16.884Z,2.70
2023-07-08T13:52:45.175Z,2.88
2023-07-08T13:55:21.716Z,2.75
2023-07-08T13:57:58.832Z,2.70
2023-07-08T14:00:25.719Z,2.80
2023-07-08T14:02:53.817Z,2.80
2023-07-08T14:05:22.607Z,2.65
2023-07-08T14:07:52.051Z,2.95
2023-07-08T14:10:18.961Z,2.78
2023-07-08T14:12:45.572Z,2.90
2023-07-08T14:15:12.281Z,2.90
2023-07-08T14:17:39.295Z,2.88
2023-07-08T14:20:16.763Z,2.53
2023-07-08T14:22:43.337Z,3.10
2023-07-08T14:25:11.277Z,2.90
2023-07-08T14:27:38.002Z,2.70
2023-07-08T14:30:05.170Z,3.13
2023-07-08T14:32:32.960Z,2.97
2023-07-08T14:35:17.971Z,2.90
2023-07-08T14:37:45.448Z,3.08
2023-07-08T14:40:36.639Z,2.95
2023-07-08T14:43:23.353Z,3.42
2023-07-08T14:45:55.775Z,2.63
2023-07-08T14:48:23.866Z,2.88
2023-07-08T14:50:51.653Z,3.05
2023-07-08T14:53:22.075Z,3.30
2023-07-08T14:55:51.149Z,3.10
2023-07-08T14:58:30.315Z,3.10
2023-07-08T15:00:58.437Z,3.00
2023-07-08T15:03:28.103Z,2.47
2023-07-08T15:05:54.828Z,2.67
2023-07-08T15:08:21.465Z,2.53
2023-07-08T15:10:52.571Z,2.15
2023-07-08T15:13:21.536Z,2.13
2023-07-08T15:15:48.396Z,2.00
2023-07-08T15:18:17.510Z,2.13
2023-07-08T15:20:44.340Z,2.65
2023-07-08T15:23:11.851Z,2.08
2023-07-08T15:25:39.056Z,2.22
2023-07-08T15:28:05.825Z,2.60
2023-07-08T15:30:32.764Z,2.50
2023-07-08T15:32:59.707Z,2.83
2023-07-08T15:35:33.714Z,2.40
2023-07-08T15:38:03.139Z,2.42
2023-07-08T15:40:32.349Z,2.40
2023-07-08T15:43:00.708Z,2.10
2023-07-08T15:45:33.849Z,2.40
2023-07-08T15:48:00.697Z,2.20
2023-07-08T15:50:28.579Z,2.40
2023-07-08T15:55:31.138Z,2.50
2023-07-08T15:58:08.254Z,2.63
2023-07-08T16:00:37.409Z,2.45
2023-07-08T16:03:10.982Z,2.90
2023-07-08T16:05:38.150Z,2.58
2023-07-08T16:08:04.972Z,2.37
2023-07-08T16:10:31.818Z,2.40
2023-07-08T16:12:58.635Z,2.33
2023-07-08T16:15:30.897Z,2.50
2023-07-08T16:17:58.570Z,2.30
2023-07-08T16:20:27.104Z,2.60
2023-07-08T16:22:53.689Z,2.60
2023-07-08T16:25:38.524Z,2.70
2023-07-08T16:28:06.106Z,2.63
2023-07-08T16:30:33.483Z,3.55
2023-07-08T16:33:00.170Z,2.70
2023-07-08T16:35:26.838Z,2.38
2023-07-08T16:37:54.490Z,2.70
2023-07-08T16:40:26.753Z,3.10
2023-07-08T16:42:57.302Z,3.08
2023-07-08T16:45:24.915Z,2.55
2023-07-08T16:47:52.417Z,2.50
2023-07-08T16:50:20.601Z,2.63
2023-07-08T16:52:47.239Z,2.67
2023-07-08T16:55:16.818Z,2.85
2023-07-08T16:57:43.996Z,2.67
2023-07-08T17:00:13.502Z,2.38
2023-07-08T17:02:40.480Z,2.60
2023-07-08T17:05:35.180Z,2.60
2023-07-08T17:08:02.454Z,3.00
2023-07-08T17:10:29.711Z,2.90
2023-07-08T17:12:56.570Z,2.55
2023-07-08T17:15:27.182Z,3.00
2023-07-08T17:17:56.505Z,2.78
2023-07-08T17:20:34.897Z,3.13
2023-07-08T17:23:13.724Z,2.97
2023-07-08T17:25:40.402Z,3.15
2023-07-08T17:28:07.182Z,3.00
2023-07-08T17:30:34.331Z,2.90
2023-07-08T17:33:03.258Z,2.77
2023-07-08T17:35:30.077Z,2.78
2023-07-08T17:37:58.121Z,3.05
2023-07-08T17:40:26.650Z,2.80
2023-07-08T17:42:54.708Z,2.60
2023-07-08T17:45:35.342Z,2.92
2023-07-08T17:48:06.422Z,3.00
2023-07-08T17:50:39.415Z,2.95
2023-07-08T17:53:10.152Z,3.28
2023-07-08T17:55:36.837Z,3.20
2023-07-08T17:58:03.884Z,3.35
2023-07-08T18:00:30.927Z,3.77
2023-07-08T18:02:57.920Z,3.38
2023-07-08T18:05:26.512Z,3.33
2023-07-08T18:07:54.518Z,3.40
2023-07-08T18:10:24.049Z,3.30
2023-07-08T18:12:52.601Z,3.88
2023-07-08T18:15:19.230Z,4.03
2023-07-08T18:17:47.186Z,3.22
2023-07-08T18:22:44.068Z,3.13
2023-07-08T18:25:22.686Z,3.30
2023-07-08T18:27:49.853Z,3.45
2023-07-08T18:30:19.377Z,3.10
2023-07-08T18:32:52.806Z,3.40
2023-07-08T18:35:22.289Z,3.17
2023-07-08T18:37:49.473Z,3.15
2023-07-08T18:40:17.736Z,3.00
2023-07-08T18:42:57.088Z,3.03
2023-07-08T18:45:23.852Z,3.28
2023-07-08T18:47:50.716Z,2.50
2023-07-08T18:50:17.780Z,2.28
2023-07-08T18:52:47.218Z,2.90
2023-07-08T18:55:20.451Z,2.78
2023-07-08T18:57:47.243Z,2.95
2023-07-08T19:00:19.071Z,2.95
2023-07-08T19:02:57.097Z,2.75
2023-07-08T19:05:24.141Z,2.70
2023-07-08T19:07:52.236Z,2.63
2023-07-08T19:12:49.136Z,2.63
2023-07-08T19:15:27.619Z,2.90
2023-07-08T19:17:55.099Z,2.67
2023-07-08T19:20:26.032Z,2.42
2023-07-08T19:22:53.201Z,2.33
2023-07-08T19:25:23.499Z,2.40
2023-07-08T19:27:50.355Z,2.40
2023-07-08T19:30:17.903Z,2.40
2023-07-08T19:32:49.786Z,3.28
2023-07-08T19:35:22.078Z,2.58
2023-07-08T19:37:49.764Z,2.33
2023-07-08T19:40:18.839Z,2.30
2023-07-08T19:42:48.162Z,2.63
2023-07-08T19:45:20.815Z,2.25
2023-07-08T19:47:48.547Z,2.58
2023-07-08T19:50:16.152Z,2.28
2023-07-08T19:52:42.894Z,2.72
2023-07-08T19:55:10.072Z,2.58
2023-07-08T19:58:07.440Z,2.53
2023-07-08T20:00:40.319Z,2.20
2023-07-08T20:03:07.089Z,2.40
2023-07-08T20:05:35.638Z,2.20
2023-07-08T20:08:21.057Z,2.15
2023-07-08T20:10:49.151Z,3.20
2023-07-08T20:15:42.625Z,2.42
2023-07-08T20:18:13.703Z,2.40
2023-07-08T20:20:40.685Z,2.38
2023-07-08T20:23:13.529Z,2.40
2023-07-08T20:25:44.327Z,2.40
2023-07-08T20:28:12.167Z,2.38
2023-07-08T20:30:38.829Z,2.35
2023-07-08T20:33:05.718Z,2.63
2023-07-08T20:35:34.204Z,2.70
2023-07-08T20:38:00.937Z,2.58
2023-07-08T20:40:28.661Z,2.40
2023-07-08T20:42:55.599Z,2.65
2023-07-08T20:45:29.160Z,2.45
2023-07-08T20:47:56.334Z,2.50
2023-07-08T20:50:24.756Z,2.25
2023-07-08T20:52:52.703Z,2.53
2023-07-08T20:55:21.028Z,2.17
2023-07-08T20:57:48.104Z,2.20
2023-07-08T21:00:21.829Z,2.28
2023-07-08T21:02:48.563Z,2.63
2023-07-08T21:05:15.367Z,2.50
2023-07-08T21:07:42.487Z,2.40
2023-07-08T21:10:21.142Z,3.60
2023-07-08T21:12:48.260Z,2.78
2023-07-08T21:15:16.467Z,2.25
2023-07-08T21:20:22.420Z,2.40
2023-07-08T21:22:49.264Z,2.45
2023-07-08T21:25:17.925Z,2.45
2023-07-08T21:27:45.654Z,3.08
2023-07-08T21:30:24.532Z,2.63
2023-07-08T21:32:53.276Z,2.25
2023-07-08T21:35:21.380Z,2.15
2023-07-08T21:37:50.721Z,2.25
2023-07-08T21:40:37.484Z,2.22
2023-07-08T21:43:05.725Z,2.78
2023-07-08T21:48:04.589Z,2.60
2023-07-08T21:50:36.781Z,2.88
2023-07-08T21:53:03.989Z,2.92
2023-07-08T21:55:30.746Z,2.50
2023-07-08T21:57:57.394Z,3.28
2023-07-08T22:00:24.357Z,2.60
2023-07-08T22:02:52.713Z,2.83
2023-07-08T22:05:23.025Z,2.75
2023-07-08T22:07:49.998Z,2.28
2023-07-08T22:10:19.220Z,2.53
2023-07-08T22:12:48.077Z,2.60
2023-07-08T22:15:24.905Z,2.40
2023-07-08T22:17:52.969Z,2.38
2023-07-08T22:20:27.902Z,2.80
2023-07-08T22:22:55.533Z,2.88
2023-07-08T22:25:29.218Z,2.63
2023-07-08T22:27:55.923Z,2.63
2023-07-08T22:30:23.151Z,2.88
2023-07-08T22:32:51.228Z,2.70
2023-07-08T22:35:31.034Z,2.55
2023-07-08T22:37:58.538Z,2.40
2023-07-08T22:40:26.328Z,2.60
2023-07-08T22:42:53.047Z,2.53
2023-07-08T22:45:19.707Z,2.85
2023-07-08T22:47:46.765Z,2.55
2023-07-08T22:50:13.535Z,2.50
2023-07-08T22:52:40.764Z,2.30
2023-07-08T22:55:15.251Z,2.30
2023-07-08T22:57:41.871Z,2.40
2023-07-08T23:00:11.947Z,2.60
2023-07-08T23:02:38.609Z,2.80
2023-07-08T23:05:05.305Z,2.58
2023-07-08T23:07:31.907Z,2.45
2023-07-08T23:09:58.518Z,2.30
2023-07-08T23:12:25.145Z,2.47
2023-07-08T23:14:51.770Z,2.60
2023-07-08T23:17:18.484Z,2.42
2023-07-08T23:19:45.105Z,2.30
2023-07-08T23:22:19.148Z,2.90
2023-07-08T23:24:46.436Z,2.40
2023-07-08T23:27:13.437Z,2.30
2023-07-08T23:29:40.039Z,2.47
2023-07-08T23:32:07.065Z,2.45
2023-07-08T23:34:33.688Z,2.67
2023-07-08T23:37:03.259Z,2.50
2023-07-08T23:39:30.229Z,2.55
2023-07-08T23:41:57.978Z,2.47
2023-07-08T23:44:26.273Z,2.45
2023-07-08T23:49:30.993Z,2.72
2023-07-08T23:51:58.976Z,2.40
2023-07-08T23:54:35.264Z,2.63
2023-07-08T23:57:04.259Z,2.30
2023-07-08T23:59:34.036Z,2.53
